createdAt,value
2017-10-03T00:02:05.137Z,78.80
2017-10-03T00:04:32.691Z,78.80
2017-10-03T00:07:00.223Z,78.90
2017-10-03T00:09:28.557Z,78.80
2017-10-03T00:11:56.107Z,78.80
2017-10-03T00:14:23.621Z,78.80
2017-10-03T00:16:51.939Z,78.40
2017-10-03T00:19:19.477Z,78.40
2017-10-03T00:21:48.114Z,78.40
2017-10-03T00:24:15.620Z,78.40
2017-10-03T00:26:43.906Z,78.30
2017-10-03T00:29:11.451Z,78.40
2017-10-03T00:31:40.455Z,78.30
2017-10-03T00:34:08.784Z,78.30
2017-10-03T00:36:36.332Z,78.40
2017-10-03T00:39:03.887Z,78.40
2017-10-03T00:41:31.433Z,78.40
2017-10-03T00:43:59.794Z,78.60
2017-10-03T00:46:28.393Z,78.70
2017-10-03T00:48:55.904Z,78.60
2017-10-03T00:51:24.324Z,78.70
2017-10-03T00:53:51.882Z,78.60
2017-10-03T00:56:20.172Z,78.40
2017-10-03T00:58:47.746Z,78.50
2017-10-03T01:01:15.294Z,78.50
2017-10-03T01:03:42.808Z,78.20
2017-10-03T01:06:10.394Z,78.00
2017-10-03T01:08:38.722Z,77.20
2017-10-03T01:11:06.297Z,77.20
2017-10-03T01:13:33.812Z,77.10
2017-10-03T01:16:01.326Z,77.50
2017-10-03T01:18:28.886Z,78.20
2017-10-03T01:20:56.465Z,78.80
2017-10-03T01:23:25.092Z,80.00
2017-10-03T01:25:54.395Z,80.60
2017-10-03T01:28:21.938Z,80.60
2017-10-03T01:30:50.274Z,81.30
2017-10-03T01:33:17.812Z,81.40
2017-10-03T01:35:45.672Z,81.70
2017-10-03T01:38:13.222Z,81.80
2017-10-03T01:40:40.752Z,82.00
2017-10-03T01:43:09.059Z,82.00
2017-10-03T01:45:36.583Z,82.00
2017-10-03T01:48:05.183Z,82.30
2017-10-03T01:50:32.717Z,82.30
2017-10-03T01:53:00.235Z,82.10
2017-10-03T01:55:27.798Z,82.50
2017-10-03T01:57:55.331Z,82.40
2017-10-03T02:00:22.891Z,82.40
2017-10-03T02:02:50.962Z,82.50
2017-10-03T02:05:18.485Z,82.50
2017-10-03T02:07:46.844Z,82.30
2017-10-03T02:10:14.400Z,82.30
2017-10-03T02:12:42.245Z,82.20
2017-10-03T02:15:09.775Z,82.30
2017-10-03T02:17:37.350Z,82.40
2017-10-03T02:20:04.916Z,82.30
2017-10-03T02:22:32.432Z,82.70
2017-10-03T02:25:00.011Z,81.90
2017-10-03T02:27:28.299Z,81.60
2017-10-03T02:29:55.837Z,81.60
2017-10-03T02:32:23.385Z,81.60
2017-10-03T02:34:50.906Z,81.70
2017-10-03T02:37:18.512Z,81.80
2017-10-03T02:39:46.026Z,81.80
2017-10-03T02:42:13.594Z,81.70
2017-10-03T02:44:41.165Z,81.50
2017-10-03T02:47:08.703Z,81.40
2017-10-03T02:49:36.327Z,81.50
2017-10-03T02:52:04.618Z,81.60
2017-10-03T02:54:32.887Z,81.60
2017-10-03T02:57:01.204Z,81.60
2017-10-03T02:59:28.711Z,81.50
2017-10-03T03:01:57.067Z,81.40
2017-10-03T03:04:24.594Z,81.40
2017-10-03T03:06:52.104Z,81.40
2017-10-03T03:09:35.680Z,81.60
2017-10-03T03:12:03.183Z,81.30
2017-10-03T03:14:31.040Z,81.40
2017-10-03T03:16:58.555Z,81.40
2017-10-03T03:19:26.854Z,80.90
2017-10-03T03:21:54.410Z,80.90
2017-10-03T03:24:22.146Z,80.80
2017-10-03T03:26:50.901Z,81.20
2017-10-03T03:29:18.420Z,81.20
2017-10-03T03:31:45.948Z,81.20
2017-10-03T03:34:14.279Z,81.00
2017-10-03T03:36:41.804Z,81.10
2017-10-03T03:39:10.127Z,81.00
2017-10-03T03:41:37.680Z,81.10
2017-10-03T03:44:05.197Z,81.00
2017-10-03T03:46:33.507Z,81.10
2017-10-03T03:49:01.033Z,81.10
2017-10-03T03:51:28.610Z,81.10
2017-10-03T03:53:56.123Z,81.10
2017-10-03T03:56:23.657Z,81.20
2017-10-03T03:58:51.234Z,81.30
2017-10-03T04:01:18.747Z,81.40
2017-10-03T04:03:46.642Z,81.30
2017-10-03T04:06:14.178Z,81.20
2017-10-03T04:08:41.696Z,81.10
2017-10-03T04:11:09.247Z,81.10
2017-10-03T04:13:36.779Z,81.10
2017-10-03T04:16:04.336Z,81.20
2017-10-03T04:18:31.855Z,81.20
2017-10-03T04:21:00.154Z,81.00
2017-10-03T04:23:27.720Z,81.20
2017-10-03T04:25:55.249Z,81.10
2017-10-03T04:28:23.834Z,81.00
2017-10-03T04:30:52.140Z,80.90
2017-10-03T04:33:19.667Z,80.80
2017-10-03T04:35:47.221Z,80.80
2017-10-03T04:38:14.742Z,80.80
2017-10-03T04:40:42.559Z,80.90
2017-10-03T04:43:10.070Z,80.90
2017-10-03T04:45:37.594Z,81.10
2017-10-03T04:48:05.158Z,80.90
2017-10-03T04:50:33.445Z,80.90
2017-10-03T04:53:01.334Z,80.90
2017-10-03T04:55:28.857Z,80.90
2017-10-03T04:57:57.151Z,80.80
2017-10-03T05:00:24.686Z,80.90
2017-10-03T05:02:52.211Z,80.90
2017-10-03T05:05:20.053Z,81.10
2017-10-03T05:07:47.590Z,80.70
2017-10-03T05:10:15.863Z,80.70
2017-10-03T05:12:44.184Z,80.90
2017-10-03T05:15:11.708Z,80.90
2017-10-03T05:17:39.593Z,80.90
2017-10-03T05:20:07.112Z,81.10
2017-10-03T05:22:34.640Z,81.10
2017-10-03T05:25:02.293Z,81.50
2017-10-03T05:27:29.810Z,81.10
2017-10-03T05:29:58.414Z,81.00
2017-10-03T05:32:25.948Z,81.00
2017-10-03T05:34:54.247Z,81.00
2017-10-03T05:37:21.808Z,81.00
2017-10-03T05:39:49.364Z,81.00
2017-10-03T05:42:17.682Z,80.90
2017-10-03T05:44:45.188Z,81.00
2017-10-03T05:47:13.478Z,80.90
2017-10-03T05:49:41.020Z,81.00
2017-10-03T05:52:09.322Z,81.10
2017-10-03T05:54:36.886Z,81.10
2017-10-03T05:57:04.438Z,81.10
2017-10-03T05:59:31.962Z,81.10
2017-10-03T06:01:59.530Z,81.10
2017-10-03T06:04:27.039Z,81.20
2017-10-03T06:06:54.933Z,81.10
2017-10-03T06:09:22.449Z,81.10
2017-10-03T06:11:49.971Z,81.10
2017-10-03T06:14:17.509Z,80.80
2017-10-03T06:16:45.052Z,80.60
2017-10-03T06:19:12.590Z,80.70
2017-10-03T06:21:40.411Z,80.80
2017-10-03T06:24:07.949Z,80.90
2017-10-03T06:26:35.501Z,80.90
2017-10-03T06:29:03.023Z,80.90
2017-10-03T06:31:31.351Z,80.90
2017-10-03T06:33:58.875Z,80.80
2017-10-03T06:36:26.393Z,80.70
2017-10-03T06:38:53.959Z,80.70
2017-10-03T06:41:21.462Z,80.60
2017-10-03T06:43:49.032Z,80.50
2017-10-03T06:46:16.582Z,80.60
2017-10-03T06:48:44.103Z,80.40
2017-10-03T06:51:11.674Z,80.40
2017-10-03T06:53:39.973Z,80.30
2017-10-03T06:56:07.535Z,80.30
2017-10-03T06:58:35.060Z,80.30
2017-10-03T07:01:02.579Z,80.30
2017-10-03T07:03:30.899Z,80.30
2017-10-03T07:05:58.425Z,80.30
2017-10-03T07:08:25.989Z,80.20
2017-10-03T07:10:53.564Z,80.20
2017-10-03T07:13:21.104Z,80.20
2017-10-03T07:15:48.652Z,80.20
2017-10-03T07:18:16.176Z,81.10
2017-10-03T07:20:44.511Z,79.90
2017-10-03T07:23:12.057Z,79.90
2017-10-03T07:25:39.581Z,80.00
2017-10-03T07:28:07.910Z,79.90
2017-10-03T07:30:35.450Z,79.90
2017-10-03T07:33:03.038Z,80.10
2017-10-03T07:35:30.581Z,79.90
2017-10-03T07:37:58.107Z,79.80
2017-10-03T07:40:26.422Z,79.90
2017-10-03T07:42:54.072Z,79.80
2017-10-03T07:45:21.636Z,79.80
2017-10-03T07:47:49.211Z,79.60
2017-10-03T07:50:16.735Z,79.40
2017-10-03T07:52:44.299Z,79.20
2017-10-03T07:55:11.837Z,79.10
2017-10-03T07:57:40.168Z,79.50
2017-10-03T08:00:07.733Z,79.50
2017-10-03T08:02:35.250Z,79.60
2017-10-03T08:05:03.555Z,79.30
2017-10-03T08:07:31.112Z,79.40
2017-10-03T08:09:58.673Z,79.20
2017-10-03T08:12:26.192Z,79.30
2017-10-03T08:14:54.531Z,78.90
2017-10-03T08:17:22.104Z,79.00
2017-10-03T08:19:49.644Z,78.90
2017-10-03T08:22:17.213Z,78.60
2017-10-03T08:24:44.718Z,78.50
2017-10-03T08:27:13.026Z,77.90
2017-10-03T08:29:40.563Z,77.80
2017-10-03T08:32:08.855Z,77.30
2017-10-03T08:34:36.414Z,77.30
2017-10-03T08:37:03.953Z,77.30
2017-10-03T08:39:31.544Z,77.20
2017-10-03T08:41:59.139Z,77.30
2017-10-03T08:44:26.712Z,77.20
2017-10-03T08:46:54.817Z,77.20
2017-10-03T08:49:23.361Z,76.90
2017-10-03T08:51:52.112Z,78.00
2017-10-03T08:54:21.583Z,77.10
2017-10-03T08:56:50.223Z,77.50
2017-10-03T08:59:17.865Z,77.60
2017-10-03T09:01:45.493Z,77.40
2017-10-03T09:04:13.286Z,77.50
2017-10-03T09:06:40.834Z,77.70
2017-10-03T09:09:08.470Z,78.00
2017-10-03T09:11:36.057Z,78.10
2017-10-03T09:14:03.587Z,78.20
2017-10-03T09:16:31.108Z,78.10
2017-10-03T09:18:58.691Z,78.40
2017-10-03T09:21:26.216Z,78.60
2017-10-03T09:23:53.798Z,78.60
2017-10-03T09:26:21.367Z,78.60
2017-10-03T09:28:48.877Z,78.50
2017-10-03T09:31:17.206Z,78.50
2017-10-03T09:33:44.771Z,78.50
2017-10-03T09:36:12.598Z,78.60
2017-10-03T09:38:40.474Z,79.00
2017-10-03T09:41:08.086Z,79.40
2017-10-03T09:43:35.751Z,79.60
2017-10-03T09:46:03.329Z,79.80
2017-10-03T09:48:32.237Z,80.10
2017-10-03T09:51:00.287Z,80.50
2017-10-03T09:53:28.137Z,80.30
2017-10-03T09:55:56.290Z,80.40
2017-10-03T09:58:23.882Z,80.60
2017-10-03T10:00:51.456Z,80.70
2017-10-03T10:03:19.762Z,80.80
2017-10-03T10:05:47.318Z,80.90
2017-10-03T10:08:14.889Z,80.80
2017-10-03T10:10:42.425Z,80.50
2017-10-03T10:13:11.044Z,80.30
2017-10-03T10:15:38.586Z,80.20
2017-10-03T10:18:06.144Z,80.00
2017-10-03T10:20:33.717Z,79.80
2017-10-03T10:23:01.233Z,79.90
2017-10-03T10:25:28.815Z,79.70
2017-10-03T10:27:57.107Z,79.80
2017-10-03T10:30:24.627Z,79.90
2017-10-03T10:32:52.234Z,79.80
2017-10-03T10:35:19.778Z,79.70
2017-10-03T10:37:48.178Z,79.70
2017-10-03T10:40:15.749Z,79.90
2017-10-03T10:42:43.305Z,79.70
2017-10-03T10:45:11.660Z,79.50
2017-10-03T10:47:39.976Z,79.60
2017-10-03T10:50:07.540Z,79.60
2017-10-03T10:52:35.069Z,79.80
2017-10-03T10:55:02.652Z,79.70
2017-10-03T10:57:30.201Z,79.20
2017-10-03T10:59:57.768Z,79.30
2017-10-03T11:02:25.402Z,78.20
2017-10-03T11:04:53.694Z,77.20
2017-10-03T11:07:21.254Z,77.20
2017-10-03T11:09:48.808Z,77.10
2017-10-03T11:12:16.359Z,77.00
2017-10-03T11:14:44.689Z,76.70
2017-10-03T11:17:12.231Z,76.70
2017-10-03T11:19:40.535Z,76.70
2017-10-03T11:22:08.095Z,76.50
2017-10-03T11:24:44.449Z,76.00
2017-10-03T11:27:12.033Z,75.50
2017-10-03T11:29:39.614Z,75.90
2017-10-03T11:32:07.255Z,76.10
2017-10-03T11:34:34.785Z,77.10
2017-10-03T11:37:02.366Z,75.70
2017-10-03T11:39:29.920Z,73.70
2017-10-03T11:41:57.979Z,71.30
2017-10-03T11:44:25.614Z,69.40
2017-10-03T11:46:53.170Z,68.60
2017-10-03T11:49:20.699Z,68.30
2017-10-03T11:51:48.248Z,67.40
2017-10-03T11:54:15.814Z,68.30
2017-10-03T11:56:43.384Z,68.40
2017-10-03T11:59:10.910Z,68.30
2017-10-03T12:01:41.497Z,68.30
2017-10-03T12:04:09.807Z,68.90
2017-10-03T12:06:37.337Z,68.80
2017-10-03T12:09:05.970Z,66.10
2017-10-03T12:11:33.535Z,65.90
2017-10-03T12:14:01.063Z,62.00
2017-10-03T12:16:28.705Z,60.00
2017-10-03T12:18:56.425Z,56.50
2017-10-03T12:36:25.845Z,54.90
2017-10-03T12:38:58.933Z,57.90
2017-10-03T12:41:26.484Z,57.40
2017-10-03T12:43:54.006Z,56.70
2017-10-03T12:46:21.585Z,55.80
2017-10-03T12:48:49.161Z,55.80
2017-10-03T12:51:17.204Z,53.90
2017-10-03T12:53:44.784Z,52.30
2017-10-03T12:56:12.464Z,51.60
2017-10-03T12:58:40.096Z,50.80
2017-10-03T13:01:07.732Z,50.20
2017-10-03T13:03:36.376Z,49.20
2017-10-03T13:06:03.951Z,48.40
2017-10-03T13:08:31.585Z,47.20
2017-10-03T13:10:59.104Z,46.10
2017-10-03T13:13:26.696Z,45.20
2017-10-03T13:15:54.237Z,44.00
2017-10-03T13:18:21.834Z,44.50
2017-10-03T13:20:49.488Z,46.70
2017-10-03T13:23:17.056Z,49.10
2017-10-03T13:25:45.391Z,53.50
2017-10-03T13:28:14.691Z,55.70
2017-10-03T13:30:43.186Z,55.90
2017-10-03T13:33:11.615Z,57.80
2017-10-03T13:35:40.858Z,58.80
2017-10-03T13:38:09.772Z,59.10
2017-10-03T13:40:37.930Z,59.80
2017-10-03T13:43:05.688Z,61.10
2017-10-03T13:45:34.102Z,62.00
2017-10-03T13:48:02.988Z,62.00
2017-10-03T13:50:30.964Z,63.10
2017-10-03T13:52:59.571Z,64.10
2017-10-03T13:55:28.169Z,63.80
2017-10-03T13:57:56.062Z,65.10
2017-10-03T14:00:24.468Z,65.30
2017-10-03T14:02:52.593Z,65.10
2017-10-03T14:05:20.166Z,65.30
2017-10-03T14:07:48.468Z,64.80
2017-10-03T14:10:16.962Z,64.80
2017-10-03T14:12:44.542Z,64.70
2017-10-03T14:15:12.153Z,64.80
2017-10-03T14:17:40.598Z,64.50
2017-10-03T14:20:08.186Z,64.60
2017-10-03T14:22:35.933Z,64.70
2017-10-03T14:25:03.557Z,64.70
2017-10-03T14:27:31.175Z,64.70
2017-10-03T14:29:58.740Z,64.20
2017-10-03T14:32:26.428Z,64.30
2017-10-03T14:34:54.068Z,64.60
2017-10-03T14:37:21.616Z,64.70
2017-10-03T14:39:49.240Z,64.70
2017-10-03T14:42:16.825Z,64.70
2017-10-03T14:44:44.508Z,64.80
2017-10-03T14:47:12.066Z,65.00
2017-10-03T14:49:40.515Z,65.10
2017-10-03T14:52:08.052Z,65.90
2017-10-03T14:54:35.656Z,65.30
2017-10-03T14:57:03.201Z,65.40
2017-10-03T14:59:30.737Z,65.30
2017-10-03T15:01:58.293Z,65.20
2017-10-03T15:04:25.828Z,65.20
2017-10-03T15:06:54.145Z,65.60
2017-10-03T15:09:21.686Z,65.50
2017-10-03T15:11:49.262Z,65.60
2017-10-03T15:14:16.816Z,65.30
2017-10-03T15:16:44.420Z,65.10
2017-10-03T15:19:11.964Z,65.10
2017-10-03T15:21:39.586Z,65.00
2017-10-03T15:24:07.213Z,64.90
2017-10-03T15:26:35.009Z,65.20
2017-10-03T15:29:03.323Z,65.10
2017-10-03T15:31:30.878Z,65.10
2017-10-03T15:33:58.419Z,65.40
2017-10-03T15:36:25.983Z,65.20
2017-10-03T15:38:53.524Z,65.10
2017-10-03T15:41:21.885Z,65.20
2017-10-03T15:43:49.424Z,65.20
2017-10-03T15:46:17.001Z,65.50
2017-10-03T15:48:44.536Z,65.80
2017-10-03T15:51:12.088Z,66.00
2017-10-03T15:53:39.634Z,65.80
2017-10-03T15:56:07.204Z,65.50
2017-10-03T15:58:34.732Z,65.70
2017-10-03T16:01:03.131Z,65.50
2017-10-03T16:03:30.695Z,65.50
2017-10-03T16:05:58.306Z,65.60
2017-10-03T16:08:25.874Z,65.80
2017-10-03T16:10:53.436Z,66.00
2017-10-03T16:13:21.816Z,66.10
2017-10-03T16:15:49.356Z,66.10
2017-10-03T16:18:16.954Z,65.80
2017-10-03T16:20:45.273Z,65.20
2017-10-03T16:23:12.956Z,65.20
2017-10-03T16:25:41.001Z,65.20
2017-10-03T16:28:09.951Z,64.30
2017-10-03T16:36:49.362Z,62.80
2017-10-03T16:39:37.009Z,63.20
2017-10-03T16:42:04.740Z,63.10
2017-10-03T16:44:33.143Z,63.00
2017-10-03T16:47:01.539Z,63.00
2017-10-03T16:49:29.071Z,63.10
2017-10-03T16:51:56.666Z,63.20
2017-10-03T16:54:24.209Z,63.40
2017-10-03T16:56:51.764Z,63.60
2017-10-03T16:59:19.284Z,63.80
2017-10-03T17:01:46.827Z,63.90
2017-10-03T17:04:14.370Z,64.00
2017-10-03T17:06:41.951Z,64.20
2017-10-03T17:09:09.577Z,64.30
2017-10-03T17:11:37.102Z,64.30
2017-10-03T17:14:06.111Z,64.60
2017-10-03T17:16:33.883Z,64.80
2017-10-03T17:19:02.275Z,64.80
2017-10-03T17:21:29.880Z,65.10
2017-10-03T17:23:57.566Z,65.30
2017-10-03T17:26:27.391Z,65.50
2017-10-03T17:28:55.875Z,65.70
2017-10-03T17:31:24.215Z,65.80
2017-10-03T17:33:52.688Z,65.90
2017-10-03T17:36:21.578Z,67.00
2017-10-03T17:38:50.859Z,66.40
2017-10-03T17:41:19.502Z,67.10
2017-10-03T17:43:47.447Z,66.70
2017-10-03T17:46:15.910Z,67.00
2017-10-03T17:48:43.648Z,67.10
2017-10-03T17:51:11.253Z,67.40
2017-10-03T17:53:38.824Z,67.50
2017-10-03T17:56:07.199Z,68.00
2017-10-03T17:58:35.045Z,68.00
2017-10-03T18:01:02.656Z,68.30
2017-10-03T18:03:30.286Z,68.50
2017-10-03T18:05:59.190Z,68.80
2017-10-03T18:08:27.790Z,69.10
2017-10-03T18:10:55.380Z,69.20
2017-10-03T18:13:23.047Z,69.40
2017-10-03T18:15:50.619Z,69.50
2017-10-03T18:18:18.383Z,69.70
2017-10-03T18:20:48.069Z,69.80
2017-10-03T18:23:16.171Z,70.00
2017-10-03T18:25:44.443Z,70.20
2017-10-03T18:28:14.316Z,69.60
2017-10-03T18:30:42.044Z,69.90
2017-10-03T18:33:09.736Z,69.90
2017-10-03T18:35:39.341Z,69.60
2017-10-03T18:38:08.398Z,69.70
2017-10-03T18:40:38.057Z,69.40
2017-10-03T18:43:06.182Z,70.00
2017-10-03T18:45:34.632Z,69.40
2017-10-03T18:48:03.139Z,69.60
2017-10-03T18:50:31.588Z,69.30
2017-10-03T18:52:59.152Z,69.40
2017-10-03T18:55:26.748Z,69.30
2017-10-03T18:57:54.340Z,69.30
2017-10-03T19:00:23.916Z,69.00
2017-10-03T19:02:52.165Z,69.40
2017-10-03T19:05:19.913Z,69.10
2017-10-03T19:07:48.018Z,68.80
2017-10-03T19:10:16.048Z,68.70
2017-10-03T19:12:45.956Z,69.00
2017-10-03T19:15:14.613Z,69.00
2017-10-03T19:17:42.474Z,69.10
2017-10-03T19:20:10.910Z,69.30
2017-10-03T19:22:38.869Z,69.50
2017-10-03T19:25:07.435Z,69.10
2017-10-03T19:27:35.955Z,69.30
2017-10-03T19:30:04.694Z,69.30
2017-10-03T19:32:32.956Z,69.40
2017-10-03T19:35:01.057Z,69.50
2017-10-03T19:37:29.761Z,69.10
2017-10-03T19:39:57.622Z,69.00
2017-10-03T19:42:25.376Z,69.00
2017-10-03T19:44:53.299Z,69.00
2017-10-03T19:47:21.069Z,69.00
2017-10-03T19:49:49.021Z,69.70
2017-10-03T19:52:17.321Z,68.90
2017-10-03T19:54:45.241Z,69.00
2017-10-03T20:00:24.572Z,69.20
2017-10-03T20:02:52.170Z,68.80
2017-10-03T20:05:20.626Z,68.70
2017-10-03T20:07:49.050Z,68.80
2017-10-03T20:10:16.720Z,68.70
2017-10-03T20:12:45.786Z,68.70
2017-10-03T20:15:13.718Z,69.10
2017-10-03T20:17:41.319Z,68.30
2017-10-03T20:20:09.774Z,68.30
2017-10-03T20:22:37.524Z,68.30
2017-10-03T20:25:05.940Z,68.10
2017-10-03T20:27:33.571Z,67.80
2017-10-03T20:30:02.365Z,67.90
2017-10-03T20:32:31.154Z,68.40
2017-10-03T20:35:00.455Z,68.40
2017-10-03T20:37:30.112Z,67.90
2017-10-03T20:39:58.632Z,68.30
2017-10-03T20:42:27.443Z,68.20
2017-10-03T20:44:55.660Z,68.50
2017-10-03T20:47:24.342Z,68.40
2017-10-03T20:49:52.842Z,68.20
2017-10-03T20:52:24.119Z,68.10
2017-10-03T20:54:53.412Z,68.30
2017-10-03T20:57:21.592Z,68.30
2017-10-03T20:59:50.607Z,68.60
2017-10-03T21:02:18.175Z,68.80
2017-10-03T21:04:45.691Z,68.70
2017-10-03T21:07:13.320Z,68.60
2017-10-03T21:09:41.634Z,68.60
2017-10-03T21:12:09.254Z,68.50
2017-10-03T21:14:37.561Z,68.60
2017-10-03T21:17:05.137Z,68.60
2017-10-03T21:19:35.188Z,68.60
2017-10-03T21:22:02.775Z,68.50
2017-10-03T21:24:30.313Z,68.50
2017-10-03T21:26:57.875Z,68.40
2017-10-03T21:29:25.509Z,68.10
2017-10-03T21:31:53.101Z,68.00
2017-10-03T21:34:20.627Z,67.90
2017-10-03T21:36:48.184Z,67.80
2017-10-03T21:39:16.191Z,67.70
2017-10-03T21:41:55.885Z,67.50
2017-10-03T21:44:23.420Z,67.40
2017-10-03T21:46:51.718Z,67.30
2017-10-03T21:49:19.271Z,67.30
2017-10-03T21:51:47.556Z,67.10
2017-10-03T21:54:15.111Z,67.10
2017-10-03T21:56:43.447Z,66.80
2017-10-03T21:59:11.028Z,66.80
2017-10-03T22:01:38.545Z,67.00
2017-10-03T22:04:06.520Z,66.70
2017-10-03T22:06:34.055Z,66.70
2017-10-03T22:09:01.571Z,66.60
2017-10-03T22:11:29.402Z,66.50
2017-10-03T22:13:56.936Z,66.50
2017-10-03T22:16:24.460Z,66.50
2017-10-03T22:18:53.125Z,66.50
2017-10-03T22:21:20.676Z,66.50
2017-10-03T22:23:48.326Z,66.50
2017-10-03T22:26:16.147Z,66.50
2017-10-03T22:28:43.662Z,66.50
2017-10-03T22:31:11.205Z,66.50
2017-10-03T22:33:39.116Z,66.60
2017-10-03T22:36:07.139Z,66.70
2017-10-03T22:38:34.714Z,66.70
2017-10-03T22:41:02.708Z,66.70
2017-10-03T22:43:30.268Z,66.60
2017-10-03T22:45:57.787Z,66.80
2017-10-03T22:48:25.693Z,66.60
2017-10-03T22:50:53.210Z,66.80
2017-10-03T22:53:20.797Z,66.80
2017-10-03T22:55:48.999Z,66.80
2017-10-03T22:58:16.528Z,66.80
2017-10-03T23:00:44.058Z,66.90
2017-10-03T23:03:12.786Z,67.10
2017-10-03T23:05:40.317Z,67.10
2017-10-03T23:08:07.893Z,67.20
2017-10-03T23:10:35.799Z,67.30
2017-10-03T23:13:03.348Z,67.50
2017-10-03T23:15:30.861Z,67.70
2017-10-03T23:17:58.964Z,68.20
2017-10-03T23:20:26.559Z,68.50
2017-10-03T23:22:54.941Z,69.30
2017-10-03T23:25:22.779Z,69.30
2017-10-03T23:27:50.303Z,69.60
2017-10-03T23:30:18.597Z,70.00
2017-10-03T23:32:46.627Z,69.90
2017-10-03T23:35:14.367Z,70.10
2017-10-03T23:37:41.973Z,70.40
2017-10-03T23:40:10.681Z,70.50
2017-10-03T23:42:38.385Z,70.50
2017-10-03T23:45:05.942Z,70.50
2017-10-03T23:47:33.852Z,70.50
2017-10-03T23:50:02.280Z,70.70
2017-10-03T23:52:29.822Z,70.70
2017-10-03T23:54:57.658Z,70.70
2017-10-03T23:57:25.931Z,70.80
2017-10-03T23:59:54.297Z,71.00
